Terminal Aerodrome Forecast
Issued by NWS

Home | Current Version | Previous Version | Text Only | Print | Product List | Glossary Off
Versions: 1 2 3 4 5 6 7 8 9 10 11 12 13 14 15

000
FTUS45 KGGW 221735
TAFSDY
TAF
KSDY 221735Z 2218/2318 VRB04KT P6SM VCSH BKN110
     FM230000 VRB04KT 6SM -TSRA BKN050CB
     FM230600 06005KT P6SM -SHRA BKN090
     FM231200 09006KT 6SM -RA OVC090 PROB30 2312/2318 TS BKN050CB=

USA.gov is the U.S. government's official web portal to all federal, state and local government web resources and services.